createdAt,value
2019-03-10T00:00:37.562Z,81.74
2019-03-10T00:05:32.163Z,81.71
2019-03-10T00:10:26.829Z,81.97
2019-03-10T00:15:21.545Z,81.99
2019-03-10T00:20:16.241Z,82.26
2019-03-10T00:25:12.584Z,82.27
2019-03-10T00:30:16.816Z,82.27
2019-03-10T00:35:11.703Z,82.36
2019-03-10T00:40:27.162Z,82.09
2019-03-10T00:46:05.427Z,82.26
2019-03-10T00:51:28.676Z,82.37
2019-03-10T00:56:23.336Z,82.26
2019-03-10T01:01:17.929Z,82.26
2019-03-10T01:06:12.577Z,81.93
2019-03-10T01:11:07.314Z,81.70
2019-03-10T01:16:02.726Z,81.61
2019-03-10T01:20:59.975Z,81.96
2019-03-10T01:25:54.572Z,81.99
2019-03-10T01:31:02.546Z,81.83
2019-03-10T01:35:57.139Z,82.31
2019-03-10T01:40:51.726Z,82.45
2019-03-10T01:45:46.506Z,82.68
2019-03-10T01:50:41.082Z,82.58
2019-03-10T01:55:35.671Z,82.23
2019-03-10T02:00:30.335Z,82.32
2019-03-10T02:05:24.934Z,81.89
2019-03-10T02:10:19.536Z,82.12
2019-03-10T02:15:16.711Z,81.94
2019-03-10T02:20:15.852Z,82.02
2019-03-10T02:25:11.056Z,82.57
2019-03-10T02:30:10.175Z,83.74
2019-03-10T02:35:05.965Z,84.74
2019-03-10T02:40:00.569Z,85.48
2019-03-10T02:44:55.143Z,86.09
2019-03-10T02:49:49.750Z,86.39
2019-03-10T02:54:44.341Z,86.71
2019-03-10T02:59:38.952Z,87.28
2019-03-10T03:04:33.589Z,87.63
2019-03-10T03:09:28.178Z,88.06
2019-03-10T03:14:22.801Z,88.69
2019-03-10T03:19:17.369Z,89.01
2019-03-10T03:24:11.987Z,89.53
2019-03-10T03:29:06.648Z,89.65
2019-03-10T03:34:01.282Z,89.93
2019-03-10T03:39:03.917Z,90.02
2019-03-10T03:43:58.512Z,89.95
2019-03-10T03:48:53.136Z,90.23
2019-03-10T03:53:47.721Z,90.26
2019-03-10T03:58:42.388Z,90.11
2019-03-10T04:03:36.982Z,90.63
2019-03-10T04:08:31.574Z,90.50
2019-03-10T04:13:26.200Z,90.00
2019-03-10T04:18:20.829Z,90.01
2019-03-10T04:23:15.404Z,90.38
2019-03-10T04:28:09.992Z,90.81
2019-03-10T04:33:04.688Z,90.85
2019-03-10T04:37:59.283Z,90.90
2019-03-10T04:42:53.913Z,91.54
2019-03-10T04:47:48.522Z,91.65
2019-03-10T04:52:43.100Z,91.41
2019-03-10T04:57:39.328Z,91.55
2019-03-10T05:02:34.007Z,92.08
2019-03-10T05:07:28.580Z,92.33
2019-03-10T05:12:23.179Z,92.33
2019-03-10T05:17:17.756Z,90.63
2019-03-10T05:22:12.347Z,89.08
2019-03-10T05:27:06.949Z,88.89
2019-03-10T05:32:01.593Z,88.43
2019-03-10T05:36:56.231Z,88.99
2019-03-10T05:41:50.910Z,89.49
2019-03-10T05:46:45.505Z,90.60
2019-03-10T05:51:40.121Z,91.44
2019-03-10T05:56:34.792Z,91.70
2019-03-10T06:01:29.381Z,91.63
2019-03-10T06:06:24.121Z,91.59
2019-03-10T06:11:18.707Z,91.78
2019-03-10T06:16:13.289Z,92.02
2019-03-10T06:21:07.896Z,92.14
2019-03-10T06:26:02.497Z,92.63
2019-03-10T06:30:57.067Z,92.68
2019-03-10T06:35:51.655Z,93.24
2019-03-10T06:40:46.272Z,93.09
2019-03-10T06:45:40.853Z,93.14
2019-03-10T06:50:35.445Z,93.15
2019-03-10T06:55:30.048Z,92.41
2019-03-10T07:00:24.625Z,91.83
2019-03-10T07:05:19.224Z,90.60
2019-03-10T07:10:16.296Z,89.79
2019-03-10T07:15:13.405Z,90.26
2019-03-10T07:20:14.820Z,89.20
2019-03-10T07:25:09.555Z,88.43
2019-03-10T07:30:07.454Z,87.96
2019-03-10T07:35:09.562Z,87.07
2019-03-10T07:40:20.410Z,85.90
2019-03-10T07:45:22.570Z,85.22
2019-03-10T07:50:34.589Z,84.98
2019-03-10T07:55:34.828Z,85.08
2019-03-10T08:00:48.905Z,83.01
2019-03-10T08:05:45.128Z,83.63
2019-03-10T08:10:42.439Z,84.54
2019-03-10T08:15:44.112Z,84.90
2019-03-10T08:20:46.243Z,85.92
2019-03-10T08:25:44.894Z,87.58
2019-03-10T08:30:44.170Z,87.44
2019-03-10T08:35:44.242Z,87.45
2019-03-10T08:40:43.181Z,88.55
2019-03-10T08:45:45.304Z,88.90
2019-03-10T08:50:48.422Z,89.86
2019-03-10T08:55:53.385Z,90.35
2019-03-10T09:01:05.352Z,91.13
2019-03-10T09:06:01.613Z,90.59
2019-03-10T09:10:57.866Z,91.67
2019-03-10T09:16:12.483Z,91.68
2019-03-10T09:21:11.393Z,91.24
2019-03-10T09:26:07.639Z,90.51
2019-03-10T09:31:09.374Z,90.67
2019-03-10T09:36:08.541Z,90.41
2019-03-10T09:41:02.890Z,90.05
2019-03-10T09:46:01.785Z,91.01
2019-03-10T09:51:13.188Z,90.89
2019-03-10T09:56:12.073Z,90.69
2019-03-10T10:01:08.311Z,90.77
2019-03-10T10:06:04.564Z,89.46
2019-03-10T10:11:11.206Z,88.25
2019-03-10T10:16:25.500Z,87.71
2019-03-10T10:21:39.676Z,87.01
2019-03-10T10:26:51.003Z,84.88
2019-03-10T10:31:45.367Z,83.57
2019-03-10T10:36:44.062Z,79.81
2019-03-10T10:41:40.317Z,79.78
2019-03-10T10:46:39.223Z,78.24
2019-03-10T10:51:50.896Z,80.03
2019-03-10T10:57:03.144Z,78.81
2019-03-10T11:02:05.205Z,79.69
2019-03-10T11:07:01.987Z,79.51
2019-03-10T11:11:58.224Z,79.46
2019-03-10T11:17:00.280Z,77.23
2019-03-10T11:21:56.511Z,77.56
2019-03-10T11:26:52.749Z,76.34
2019-03-10T11:31:51.919Z,77.14
2019-03-10T11:36:50.529Z,80.45
2019-03-10T11:41:49.803Z,81.93
2019-03-10T11:46:48.791Z,84.92
2019-03-10T11:51:45.553Z,86.24
2019-03-10T11:56:59.635Z,85.95
2019-03-10T12:01:55.846Z,86.05
2019-03-10T12:07:01.133Z,86.29
2019-03-10T12:11:55.774Z,85.08
2019-03-10T12:16:50.513Z,83.38
2019-03-10T12:21:45.110Z,82.55
2019-03-10T12:26:39.698Z,81.06
2019-03-10T12:31:34.329Z,79.96
2019-03-10T12:36:28.935Z,79.24
2019-03-10T12:41:23.547Z,78.29
2019-03-10T12:46:18.130Z,77.96
2019-03-10T12:51:12.724Z,75.32
2019-03-10T12:56:07.472Z,73.16
2019-03-10T13:01:06.206Z,72.72
2019-03-10T13:05:58.527Z,70.76
2019-03-10T13:10:53.128Z,71.60
2019-03-10T13:15:47.716Z,69.45
2019-03-10T13:20:42.319Z,67.85
2019-03-10T13:25:36.935Z,66.39
2019-03-10T13:30:31.599Z,66.53
2019-03-10T13:35:26.184Z,65.29
2019-03-10T13:40:20.790Z,64.10
2019-03-10T13:45:19.588Z,65.50
2019-03-10T13:50:18.513Z,63.13
2019-03-10T13:55:13.456Z,62.36
2019-03-10T14:00:25.835Z,61.91
2019-03-10T14:05:20.653Z,69.23
2019-03-10T14:10:15.381Z,71.49
2019-03-10T14:15:17.959Z,76.51
2019-03-10T14:20:14.673Z,75.85
2019-03-10T14:25:12.866Z,74.97
2019-03-10T14:30:14.053Z,76.34
2019-03-10T14:35:11.362Z,76.94
2019-03-10T14:40:16.269Z,76.87
2019-03-10T14:45:15.020Z,79.06
2019-03-10T14:50:13.210Z,82.34
2019-03-10T14:55:12.092Z,84.83
2019-03-10T15:00:11.258Z,84.43
2019-03-10T15:05:07.561Z,77.97
2019-03-10T15:10:02.162Z,70.55
2019-03-10T15:14:56.778Z,66.70
2019-03-10T15:19:51.381Z,68.08
2019-03-10T15:24:46.039Z,67.17
2019-03-10T15:29:40.648Z,67.07
2019-03-10T15:34:35.248Z,65.95
2019-03-10T15:39:29.870Z,65.00
2019-03-10T15:44:24.491Z,65.07
2019-03-10T15:49:19.087Z,61.00
2019-03-10T15:54:13.701Z,61.82
2019-03-10T15:59:08.354Z,61.13
2019-03-10T16:04:18.657Z,62.04
2019-03-10T16:09:14.452Z,62.10
2019-03-10T16:14:09.087Z,62.29
2019-03-10T16:19:03.758Z,62.68
2019-03-10T16:23:58.347Z,63.49
2019-03-10T16:28:52.929Z,63.98
2019-03-10T16:33:47.529Z,61.88
2019-03-10T16:38:42.127Z,62.61
2019-03-10T16:43:36.746Z,63.74
2019-03-10T16:48:31.316Z,64.55
2019-03-10T16:53:25.911Z,64.17
2019-03-10T16:58:20.512Z,64.75
2019-03-10T17:03:15.120Z,64.37
2019-03-10T17:08:09.719Z,63.82
2019-03-10T17:13:04.313Z,64.67
2019-03-10T17:17:58.905Z,63.57
2019-03-10T17:22:53.505Z,62.77
2019-03-10T17:27:48.336Z,62.95
2019-03-10T17:32:43.077Z,63.11
2019-03-10T17:37:37.762Z,63.16
2019-03-10T17:42:32.344Z,64.50
2019-03-10T17:47:27.041Z,63.55
2019-03-10T17:52:21.706Z,62.68
2019-03-10T17:57:16.315Z,62.58
2019-03-10T18:02:10.913Z,64.33
2019-03-10T18:07:05.758Z,67.04
2019-03-10T18:12:00.364Z,67.23
2019-03-10T18:16:54.986Z,69.33
2019-03-10T18:21:49.567Z,68.95
2019-03-10T18:26:44.229Z,69.20
2019-03-10T18:31:38.832Z,70.59
2019-03-10T18:36:33.449Z,73.21
2019-03-10T18:41:28.056Z,74.47
2019-03-10T18:46:22.650Z,75.56
2019-03-10T18:51:17.239Z,75.45
2019-03-10T18:56:11.909Z,74.04
2019-03-10T19:01:07.088Z,73.79
2019-03-10T19:06:01.692Z,73.13
2019-03-10T19:10:56.291Z,68.68
2019-03-10T19:15:50.884Z,66.51
2019-03-10T19:20:45.481Z,65.35
2019-03-10T19:25:40.181Z,66.54
2019-03-10T19:30:34.746Z,66.52
2019-03-10T19:35:29.361Z,66.36
2019-03-10T19:40:25.031Z,65.93
2019-03-10T19:45:22.413Z,64.82
2019-03-10T19:50:27.590Z,63.60
2019-03-10T19:55:22.607Z,59.39
2019-03-10T20:00:21.503Z,59.55
2019-03-10T20:05:16.757Z,58.96
2019-03-10T20:10:15.642Z,58.58
2019-03-10T20:15:22.387Z,58.05
2019-03-10T20:20:20.820Z,57.99
2019-03-10T20:25:16.927Z,58.85
2019-03-10T20:30:23.731Z,59.78
2019-03-10T20:35:18.317Z,60.04
2019-03-10T20:40:26.571Z,58.29
2019-03-10T20:45:21.272Z,60.62
2019-03-10T20:50:23.186Z,57.07
2019-03-10T20:55:17.852Z,56.26
2019-03-10T21:00:18.697Z,56.70
2019-03-10T21:05:13.929Z,58.32
2019-03-10T21:10:27.930Z,60.84
2019-03-10T21:15:26.004Z,63.53
2019-03-10T21:20:25.294Z,62.88
2019-03-10T21:25:26.890Z,61.58
2019-03-10T21:30:24.765Z,57.56
2019-03-10T21:35:19.422Z,56.43
2019-03-10T21:40:26.528Z,56.85
2019-03-10T21:45:21.167Z,57.72
2019-03-10T21:50:18.363Z,57.21
2019-03-10T21:55:37.419Z,57.10
2019-03-10T22:00:32.032Z,58.92
2019-03-10T22:05:26.625Z,61.01
2019-03-10T22:10:27.497Z,60.50
2019-03-10T22:15:21.738Z,59.74
2019-03-10T22:20:21.075Z,59.82
2019-03-10T22:25:17.367Z,60.11
2019-03-10T22:30:23.554Z,61.48
2019-03-10T22:35:18.302Z,62.63
2019-03-10T22:40:19.600Z,63.25
2019-03-10T22:45:19.560Z,63.35
2019-03-10T22:50:16.059Z,64.42
2019-03-10T22:55:12.842Z,65.82
2019-03-10T23:00:39.767Z,65.86
2019-03-10T23:05:34.332Z,65.45
2019-03-10T23:10:28.947Z,65.03
2019-03-10T23:15:23.558Z,65.21
2019-03-10T23:20:18.257Z,65.85
2019-03-10T23:25:13.400Z,66.58
2019-03-10T23:30:16.963Z,67.13
2019-03-10T23:35:11.702Z,64.73
2019-03-10T23:40:17.526Z,62.89
2019-03-10T23:45:15.110Z,63.41
2019-03-10T23:50:13.031Z,62.86
2019-03-10T23:55:11.224Z,61.64
